METAR Data
IDs: Format: Raw Decoded Include TAF

Data at: 0705 UTC 23 Feb 2019

KEDC 230655Z AUTO 00000KT M1/4SM FG OVC002 11/11 A2982 RMK AO2
KEDC 230635Z AUTO 14003KT M1/4SM FG OVC002 11/11 A2983 RMK AO2
KEDC 230615Z AUTO 00000KT M1/4SM FG OVC002 11/11 A2984 RMK AO2
KEDC 230555Z AUTO 00000KT M1/4SM FG OVC002 11/11 A2984 RMK AO2
KEDC 230535Z AUTO 09004KT 1/2SM FG OVC003 11/11 A2986 RMK AO2
KEDC 230515Z AUTO 09005KT 1 1/4SM BR OVC003 11/10 A2986 RMK AO2
KEDC 230455Z AUTO 08006KT 3SM BR OVC004 11/10 A2987 RMK AO2
KEDC 230435Z AUTO 07004KT 4SM BR BKN004 OVC008 11/10 A2988 RMK AO2
KEDC 230415Z AUTO 06005KT 4SM BR SCT004 OVC008 11/10 A2989 RMK AO2
KEDC 230355Z AUTO 06005KT 4SM BR BKN006 OVC013 12/10 A2990 RMK AO2
KEDC 230335Z AUTO 05005KT 4SM BR OVC006 12/10 A2990 RMK AO2
KEDC 230315Z AUTO 05004KT 5SM BR OVC006 12/10 A2991 RMK AO2
KEDC 230255Z AUTO 01004KT 5SM BR OVC005 12/10 A2992 RMK AO2
KEDC 230235Z AUTO 36004KT 6SM BR OVC005 12/10 A2992 RMK AO2
KEDC 230215Z AUTO 00000KT 6SM BR OVC005 12/10 A2992 RMK AO2
KEDC 230155Z AUTO 05005KT 6SM BR OVC005 12/10 A2990 RMK AO2
KEDC 230135Z AUTO 07005KT 6SM BR OVC005 12/10 A2989 RMK AO2
KEDC 230115Z AUTO 06005KT 6SM BR BKN005 OVC012 12/10 A2988 RMK AO2
KEDC 230055Z AUTO 09006KT 6SM BR BKN006 OVC013 12/10 A2989 RMK AO2
KEDC 230035Z AUTO 06008KT 6SM BR BKN006 OVC034 12/11 A2988 RMK AO2
KEDC 230015Z AUTO 06008KT 5SM BR OVC006 12/11 A2988 RMK AO2
KEDC 222355Z AUTO 06006KT 5SM BR OVC006 12/11 A2989 RMK AO2
KEDC 222335Z AUTO 07006KT 6SM BR OVC006 12/11 A2989 RMK AO2
KEDC 222315Z AUTO 07005KT 6SM BR OVC006 13/11 A2989 RMK AO2
KEDC 222255Z AUTO 04007KT 7SM OVC006 13/11 A2990 RMK AO2
KEDC 222235Z AUTO 07005KT 5SM BR OVC006 13/11 A2990 RMK AO2
KEDC 222215Z AUTO 07006KT 5SM BR OVC006 13/11 A2990 RMK AO2
KEDC 222155Z AUTO 05005KT 5SM BR OVC006 13/11 A2990 RMK AO2
KEDC 222135Z AUTO 05006KT 5SM BR OVC006 12/11 A2990 RMK AO2
KEDC 222115Z AUTO 04006KT 5SM BR OVC005 12/11 A2991 RMK AO2
KEDC 222055Z AUTO 03006KT 5SM BR OVC005 12/11 A2990 RMK AO2
KEDC 222035Z AUTO 05006KT 5SM BR OVC006 12/11 A2991 RMK AO2
KEDC 222015Z AUTO 05008KT 9SM OVC006 12/11 A2992 RMK AO2
KEDC 221955Z AUTO 04007KT 9SM OVC006 12/10 A2992 RMK AO2
KEDC 221935Z AUTO 05007KT 10SM OVC006 12/10 A2994 RMK AO2
KEDC 221915Z AUTO 04007KT 9SM OVC006 12/10 A2995 RMK AO2
KEDC 221855Z AUTO 03006KT 9SM OVC006 12/10 A2995 RMK AO2
KEDC 221835Z AUTO 02007KT 10SM OVC005 12/10 A2996 RMK AO2
KEDC 221815Z AUTO 36007KT 9SM OVC005 11/10 A2998 RMK AO2
KEDC 221755Z AUTO 02006KT 9SM OVC005 11/10 A2998 RMK AO2
KEDC 221735Z AUTO 03007KT 8SM OVC005 10/10 A2999 RMK AO2
KEDC 221715Z AUTO 04006KT 8SM BKN004 OVC011 10/10 A3000 RMK AO2
KEDC 221655Z AUTO 03007KT 5SM BR BKN004 OVC011 10/10 A3000 RMK AO2
KEDC 221635Z AUTO 03005KT 5SM BR OVC004 10/10 A3000 RMK AO2
KEDC 221615Z AUTO 01006KT 2SM -RA OVC004 10/10 A3000 RMK AO2
KEDC 221555Z AUTO 01005KT 1 1/4SM -RA BKN003 10/10 A3000 RMK AO2 P0001
KEDC 221535Z AUTO 02005KT 1SM -RA OVC003 10/09 A3001 RMK AO2 P0001
KEDC 221515Z AUTO 01005KT 1/2SM -RA OVC002 10/09 A3000 RMK AO2
KEDC 221455Z AUTO 36004KT M1/4SM -RA OVC002 10/09 A3000 RMK AO2
KEDC 221435Z AUTO 33004KT M1/4SM FG OVC002 09/09 A2999 RMK AO2
KEDC 221415Z AUTO 32006KT 1/4SM FG OVC002 09/09 A2998 RMK AO2
KEDC 221355Z AUTO 00000KT 1/2SM FG OVC003 09/09 A2996 RMK AO2
KEDC 221335Z AUTO 00000KT 1 3/4SM BR OVC003 09/09 A2996 RMK AO2
KEDC 221315Z AUTO 00000KT 3SM BR OVC003 09/09 A2995 RMK AO2
KEDC 221255Z AUTO 00000KT 3SM BR OVC003 09/09 A2994 RMK AO2
KEDC 221235Z AUTO 00000KT 4SM BR OVC004 09/09 A2994 RMK AO2
KEDC 221215Z AUTO 00000KT 5SM BR OVC004 09/09 A2995 RMK AO2
KEDC 221155Z AUTO 00000KT 4SM BR OVC003 09/09 A2994 RMK AO2
KEDC 221135Z AUTO 10006KT 4SM BR OVC003 09/09 A2992 RMK AO2
KEDC 221115Z AUTO 07005KT 2 1/2SM BR OVC003 09/09 A2991 RMK AO2
KEDC 221055Z AUTO 08008KT 2 1/2SM BR OVC003 09/09 A2992 RMK AO2
KEDC 221035Z AUTO 08007KT 2 1/2SM BR OVC003 09/09 A2994 RMK AO2
KEDC 221015Z AUTO 00000KT 1 3/4SM BR OVC003 09/09 A2996 RMK AO2
KEDC 220955Z AUTO 05005KT 2 1/2SM BR OVC003 09/09 A2996 RMK AO2
KEDC 220935Z AUTO 00000KT 2 1/2SM BR OVC003 09/09 A2996 RMK AO2
KEDC 220915Z AUTO 10005KT 2SM BR OVC003 09/09 A2995 RMK AO2
KEDC 220855Z AUTO 08007KT 3SM BR OVC003 09/09 A2994 RMK AO2
KEDC 220835Z AUTO 09008KT 4SM BR OVC004 09/09 A2995 RMK AO2
KEDC 220815Z AUTO 08008KT 5SM BR OVC004 09/09 A2996 RMK AO2
KEDC 220755Z AUTO 05008KT 5SM BR OVC004 09/09 A2996 RMK AO2
KEDC 220735Z AUTO 05007KT 5SM BR OVC004 09/09 A2997 RMK AO2
KEDC 220715Z AUTO 04006KT 5SM BR OVC004 09/09 A2998 RMK AO2
KEDC 220655Z AUTO 04006KT 5SM BR OVC004 09/09 A2999 RMK AO2
KEDC 220635Z AUTO 05006KT 5SM BR OVC004 09/09 A2999 RMK AO2
KEDC 220615Z AUTO 02007KT 4SM BR OVC004 09/09 A2999 RMK AO2
KEDC 220555Z AUTO 04007KT 3SM BR OVC004 09/09 A2999 RMK AO2
KEDC 220535Z AUTO 05007KT 2 1/2SM BR OVC004 09/09 A2998 RMK AO2
KEDC 220515Z AUTO 05007KT 6SM BR OVC005 10/09 A3000 RMK AO2
KEDC 220455Z AUTO 02007KT 7SM OVC005 10/09 A3000 RMK AO2
KEDC 220435Z AUTO 04005KT 7SM OVC005 10/09 A2999 RMK AO2
KEDC 220415Z AUTO 05007KT 10SM OVC006 10/09 A2998 RMK AO2
KEDC 220355Z AUTO 03006KT 9SM OVC006 10/09 A2998 RMK AO2
KEDC 220335Z AUTO 06007KT 7SM OVC005 10/09 A2997 RMK AO2
KEDC 220315Z AUTO 07008KT 8SM OVC008 10/09 A2996 RMK AO2
KEDC 220255Z AUTO 06009KT 10SM OVC010 10/09 A2995 RMK AO2
KEDC 220235Z AUTO 07005KT 10SM OVC010 11/08 A2994 RMK AO2
KEDC 220215Z AUTO 05005KT 10SM OVC014 11/08 A2992 RMK AO2
KEDC 220155Z AUTO 04007KT 10SM OVC016 11/08 A2991 RMK AO2
KEDC 220135Z AUTO 04006KT 10SM OVC016 11/08 A2991 RMK AO2
KEDC 220115Z AUTO 04005KT 10SM OVC016 11/08 A2992 RMK AO2
KEDC 220055Z AUTO 03006KT 10SM OVC018 11/08 A2992 RMK AO2
KEDC 220035Z AUTO 04006KT 10SM OVC018 11/08 A2991 RMK AO2
KEDC 220015Z AUTO 05008KT 10SM BKN018 BKN028 OVC036 11/07 A2990 RMK AO2
KEDC 212355Z AUTO 04010KT 10SM BKN018 BKN036 OVC042 12/07 A2990 RMK AO2
KEDC 212335Z AUTO 05009KT 10SM OVC018 12/07 A2990 RMK AO2
KEDC 212315Z AUTO 05010KT 10SM OVC018 12/07 A2990 RMK AO2
KEDC 212255Z AUTO 05010KT 10SM BKN020 BKN036 OVC042 12/07 A2990 RMK AO2
KEDC 212235Z AUTO 04011KT 10SM BKN022 BKN036 OVC042 12/07 A2990 RMK AO2
KEDC 212215Z AUTO 06009KT 10SM OVC022 12/07 A2991 RMK AO2
KEDC 212155Z AUTO 05009KT 10SM OVC022 12/07 A2991 RMK AO2
KEDC 212135Z AUTO 04007KT 10SM OVC020 12/07 A2991 RMK AO2
KEDC 212115Z AUTO 05008KT 10SM OVC020 12/06 A2992 RMK AO2
KEDC 212055Z AUTO 04007KT 10SM OVC020 12/07 A2992 RMK AO2
KEDC 212035Z AUTO 04007KT 10SM OVC024 12/06 A2993 RMK AO2
KEDC 212015Z AUTO 03010KT 10SM OVC029 12/06 A2993 RMK AO2
KEDC 211955Z AUTO 02009KT 10SM OVC031 12/07 A2994 RMK AO2
KEDC 211935Z AUTO 02008KT 10SM OVC031 12/06 A2995 RMK AO2
KEDC 211915Z AUTO 06011KT 10SM OVC031 12/07 A2992 RMK AO2